createdAt,value
2019-03-13T00:00:13.057Z,0.00
2019-03-13T00:01:13.024Z,0.00
2019-03-13T00:02:12.994Z,0.00
2019-03-13T00:03:12.965Z,0.00
2019-03-13T00:04:12.937Z,0.00
2019-03-13T00:05:12.905Z,0.00
2019-03-13T00:06:12.878Z,0.00
2019-03-13T00:07:12.848Z,0.00
2019-03-13T00:08:12.819Z,0.00
2019-03-13T00:09:12.788Z,0.00
2019-03-13T00:10:12.759Z,0.00
2019-03-13T00:11:12.729Z,0.00
2019-03-13T00:12:12.699Z,0.00
2019-03-13T00:13:12.670Z,0.00
2019-03-13T00:14:12.641Z,0.00
2019-03-13T00:15:12.611Z,0.00
2019-03-13T00:16:12.585Z,0.00
2019-03-13T00:17:12.553Z,0.00
2019-03-13T00:18:12.524Z,0.00
2019-03-13T00:19:12.493Z,0.00
2019-03-13T00:20:12.466Z,0.00
2019-03-13T00:21:12.436Z,0.00
2019-03-13T00:22:12.405Z,0.00
2019-03-13T00:23:12.378Z,0.00
2019-03-13T00:24:12.348Z,0.00
2019-03-13T00:25:12.317Z,0.00
2019-03-13T00:26:12.290Z,0.00
2019-03-13T00:27:12.261Z,0.00
2019-03-13T00:28:12.232Z,0.00
2019-03-13T00:29:12.202Z,0.00
2019-03-13T00:30:12.172Z,0.00
2019-03-13T00:31:12.152Z,0.00
2019-03-13T00:32:12.116Z,0.00
2019-03-13T00:33:12.085Z,0.00
2019-03-13T00:34:12.055Z,0.00
2019-03-13T00:35:12.031Z,0.00
2019-03-13T00:36:11.998Z,0.00
2019-03-13T00:37:11.968Z,0.00
2019-03-13T00:38:11.940Z,0.00
2019-03-13T00:39:11.910Z,0.00
2019-03-13T00:40:11.882Z,0.00
2019-03-13T00:41:11.851Z,0.00
2019-03-13T00:42:11.823Z,0.00
2019-03-13T00:43:11.794Z,0.00
2019-03-13T00:44:11.767Z,0.00
2019-03-13T00:45:11.736Z,0.00
2019-03-13T00:46:11.708Z,0.00
2019-03-13T00:47:11.695Z,0.00
2019-03-13T00:48:11.650Z,0.00
2019-03-13T00:49:11.621Z,0.00
2019-03-13T00:50:11.593Z,0.00
2019-03-13T00:51:11.563Z,0.00
2019-03-13T00:52:11.534Z,0.00
2019-03-13T00:53:11.506Z,0.00
2019-03-13T00:54:11.474Z,0.00
2019-03-13T00:55:11.448Z,0.00
2019-03-13T00:56:11.417Z,0.00
2019-03-13T00:57:11.389Z,0.00
2019-03-13T00:58:11.361Z,0.00
2019-03-13T00:59:11.330Z,0.00
2019-03-13T01:00:11.303Z,0.00
2019-03-13T01:01:11.294Z,0.00
2019-03-13T01:02:11.244Z,0.00
2019-03-13T01:03:11.217Z,0.00
2019-03-13T01:04:11.186Z,0.00
2019-03-13T01:05:11.156Z,0.00
2019-03-13T01:06:11.129Z,0.00
2019-03-13T01:07:11.100Z,0.00
2019-03-13T01:08:11.071Z,0.00
2019-03-13T01:09:11.044Z,0.00
2019-03-13T01:10:11.015Z,0.00
2019-03-13T01:11:10.983Z,0.00
2019-03-13T01:12:10.956Z,0.00
2019-03-13T01:13:10.927Z,0.00
2019-03-13T01:14:10.898Z,0.00
2019-03-13T01:15:10.869Z,0.00
2019-03-13T01:16:10.851Z,0.00
2019-03-13T01:17:10.811Z,0.00
2019-03-13T01:18:10.784Z,0.00
2019-03-13T01:19:10.753Z,0.00
2019-03-13T01:20:10.723Z,0.00
2019-03-13T01:21:10.695Z,0.00
2019-03-13T01:22:10.664Z,0.00
2019-03-13T01:23:10.636Z,0.00
2019-03-13T01:24:10.607Z,0.00
2019-03-13T01:25:10.580Z,0.00
2019-03-13T01:26:10.547Z,0.00
2019-03-13T01:27:10.520Z,0.00
2019-03-13T01:28:10.489Z,0.00
2019-03-13T01:29:10.458Z,0.00
2019-03-13T01:30:10.433Z,0.00
2019-03-13T01:31:10.401Z,0.00
2019-03-13T01:32:10.371Z,0.00
2019-03-13T01:33:10.357Z,0.00
2019-03-13T01:34:10.315Z,0.00
2019-03-13T01:35:10.285Z,0.00
2019-03-13T01:36:10.252Z,0.00
2019-03-13T01:37:10.221Z,0.00
2019-03-13T01:38:10.191Z,0.00
2019-03-13T01:39:10.163Z,0.00
2019-03-13T01:40:10.137Z,0.00
2019-03-13T01:41:10.101Z,0.00
2019-03-13T01:42:10.072Z,0.00
2019-03-13T01:43:10.043Z,0.00
2019-03-13T01:44:10.013Z,0.00
2019-03-13T01:45:09.984Z,0.00
2019-03-13T01:46:09.952Z,0.00
2019-03-13T01:47:09.922Z,0.00
2019-03-13T01:48:09.892Z,0.00
2019-03-13T01:49:09.860Z,0.00
2019-03-13T01:50:09.830Z,0.00
2019-03-13T01:51:09.800Z,0.00
2019-03-13T01:52:09.770Z,0.00
2019-03-13T01:53:09.752Z,0.00
2019-03-13T01:54:09.710Z,0.00
2019-03-13T01:55:09.680Z,0.00
2019-03-13T01:56:09.652Z,0.00
2019-03-13T01:57:09.621Z,0.00
2019-03-13T01:58:09.586Z,0.00
2019-03-13T01:59:09.555Z,0.00
2019-03-13T02:00:09.526Z,0.00
2019-03-13T02:01:09.494Z,0.00
2019-03-13T02:02:09.464Z,0.00
2019-03-13T02:03:09.437Z,0.00
2019-03-13T02:04:09.404Z,0.00
2019-03-13T02:05:09.375Z,0.00
2019-03-13T02:06:09.341Z,0.00
2019-03-13T02:07:09.311Z,0.00
2019-03-13T02:08:09.280Z,0.00
2019-03-13T02:09:09.250Z,0.00
2019-03-13T02:10:09.221Z,0.00
2019-03-13T02:11:09.190Z,0.00
2019-03-13T02:12:09.156Z,0.00
2019-03-13T02:13:09.126Z,0.00
2019-03-13T02:14:09.096Z,0.00
2019-03-13T02:15:09.065Z,0.00
2019-03-13T02:16:09.033Z,0.00
2019-03-13T02:17:09.002Z,0.00
2019-03-13T02:18:08.973Z,0.00
2019-03-13T02:19:08.941Z,0.00
2019-03-13T02:20:08.910Z,0.00
2019-03-13T02:21:08.878Z,0.00
2019-03-13T02:22:08.851Z,0.00
2019-03-13T02:23:08.816Z,0.00
2019-03-13T02:24:08.794Z,0.00
2019-03-13T02:25:08.758Z,0.00
2019-03-13T02:26:08.725Z,0.00
2019-03-13T02:27:08.693Z,0.00
2019-03-13T02:28:08.666Z,0.00
2019-03-13T02:29:08.633Z,0.00
2019-03-13T02:30:08.602Z,0.00
2019-03-13T02:31:08.576Z,0.00
2019-03-13T02:32:08.564Z,0.00
2019-03-13T02:33:08.510Z,0.00
2019-03-13T02:34:08.477Z,0.00
2019-03-13T02:35:08.449Z,0.00
2019-03-13T02:36:08.425Z,0.00
2019-03-13T02:37:08.402Z,0.00
2019-03-13T02:38:08.356Z,0.00
2019-03-13T02:39:08.323Z,0.00
2019-03-13T02:40:08.293Z,0.00
2019-03-13T02:41:08.262Z,0.00
2019-03-13T02:42:08.231Z,0.00
2019-03-13T02:43:08.202Z,0.00
2019-03-13T02:44:08.169Z,0.00
2019-03-13T02:45:08.147Z,0.00
2019-03-13T02:46:08.115Z,0.00
2019-03-13T02:47:08.077Z,0.00
2019-03-13T02:48:08.072Z,0.00
2019-03-13T02:49:08.032Z,0.00
2019-03-13T02:50:07.982Z,0.00
2019-03-13T02:51:07.951Z,0.00
2019-03-13T02:52:07.933Z,0.00
2019-03-13T02:53:07.891Z,0.00
2019-03-13T02:54:07.859Z,0.00
2019-03-13T02:55:07.830Z,0.00
2019-03-13T02:56:07.799Z,0.00
2019-03-13T02:57:07.768Z,0.00
2019-03-13T02:58:07.737Z,0.00
2019-03-13T02:59:07.710Z,0.00
2019-03-13T03:00:07.675Z,0.00
2019-03-13T03:01:07.669Z,0.00
2019-03-13T03:02:07.658Z,0.00
2019-03-13T03:03:07.588Z,0.00
2019-03-13T03:04:07.556Z,0.00
2019-03-13T03:05:07.520Z,0.00
2019-03-13T03:06:07.492Z,0.00
2019-03-13T03:07:07.458Z,0.00
2019-03-13T03:08:07.429Z,0.00
2019-03-13T03:09:07.550Z,0.00
2019-03-13T03:10:07.390Z,0.00
2019-03-13T03:11:07.341Z,0.00
2019-03-13T03:12:07.305Z,0.00
2019-03-13T03:13:07.274Z,0.00
2019-03-13T03:14:07.244Z,0.00
2019-03-13T03:15:07.213Z,0.00
2019-03-13T03:16:07.183Z,0.00
2019-03-13T03:17:07.151Z,0.00
2019-03-13T03:18:07.126Z,0.00
2019-03-13T03:19:07.114Z,0.00
2019-03-13T03:20:07.061Z,0.00
2019-03-13T03:21:07.036Z,0.00
2019-03-13T03:22:07.001Z,0.00
2019-03-13T03:23:06.966Z,0.00
2019-03-13T03:24:06.937Z,0.00
2019-03-13T03:25:06.906Z,0.00
2019-03-13T03:26:06.874Z,0.00
2019-03-13T03:27:06.844Z,0.00
2019-03-13T03:28:06.816Z,0.00
2019-03-13T03:29:06.784Z,0.00
2019-03-13T03:30:06.752Z,0.00
2019-03-13T03:31:06.734Z,0.00
2019-03-13T03:32:06.736Z,0.00
2019-03-13T03:33:06.658Z,0.00
2019-03-13T03:34:06.628Z,0.00
2019-03-13T03:35:06.598Z,0.00
2019-03-13T03:36:06.569Z,0.00
2019-03-13T03:37:06.536Z,0.00
2019-03-13T03:38:06.506Z,0.00
2019-03-13T03:39:06.475Z,0.00
2019-03-13T03:40:06.443Z,0.00
2019-03-13T03:41:06.576Z,0.00
2019-03-13T03:42:06.382Z,0.00
2019-03-13T03:43:06.354Z,0.00
2019-03-13T03:44:06.331Z,0.00
2019-03-13T03:45:06.289Z,0.00
2019-03-13T03:46:06.258Z,0.00
2019-03-13T03:47:06.309Z,0.00
2019-03-13T03:48:06.197Z,0.00
2019-03-13T03:49:06.165Z,0.00
2019-03-13T03:50:06.137Z,0.00
2019-03-13T03:51:06.108Z,0.00
2019-03-13T03:52:06.075Z,0.00
2019-03-13T03:53:06.042Z,0.00
2019-03-13T03:54:06.012Z,0.00
2019-03-13T03:55:05.996Z,0.00
2019-03-13T03:56:05.950Z,0.00
2019-03-13T03:57:05.921Z,0.00
2019-03-13T03:58:05.890Z,0.00
2019-03-13T03:59:05.861Z,0.00
2019-03-13T04:00:05.826Z,0.00
2019-03-13T04:01:05.796Z,0.00
2019-03-13T04:02:05.765Z,0.00
2019-03-13T04:03:05.739Z,0.00
2019-03-13T04:04:05.705Z,0.00
2019-03-13T04:05:05.678Z,0.00
2019-03-13T04:06:05.644Z,0.00
2019-03-13T04:07:05.620Z,0.00
2019-03-13T04:08:05.583Z,0.00
2019-03-13T04:09:05.550Z,0.00
2019-03-13T04:10:05.521Z,0.00
2019-03-13T04:11:05.502Z,0.00
2019-03-13T04:12:05.459Z,0.00
2019-03-13T04:13:05.428Z,0.00
2019-03-13T04:14:05.397Z,0.00
2019-03-13T04:15:05.374Z,0.00
2019-03-13T04:16:05.371Z,0.00
2019-03-13T04:17:05.309Z,0.00
2019-03-13T04:18:05.273Z,0.00
2019-03-13T04:19:05.246Z,0.00
2019-03-13T04:20:05.213Z,0.00
2019-03-13T04:21:05.181Z,0.00
2019-03-13T04:22:05.151Z,0.00
2019-03-13T04:23:05.123Z,0.00
2019-03-13T04:24:05.091Z,0.00
2019-03-13T04:25:05.058Z,0.00
2019-03-13T04:26:05.028Z,0.00
2019-03-13T04:27:04.997Z,0.00
2019-03-13T04:28:04.970Z,0.00
2019-03-13T04:29:04.935Z,0.00
2019-03-13T04:30:04.907Z,0.00
2019-03-13T04:31:04.875Z,0.00
2019-03-13T04:32:04.844Z,0.00
2019-03-13T04:33:04.817Z,0.00
2019-03-13T04:34:04.795Z,0.00
2019-03-13T04:35:04.752Z,0.00
2019-03-13T04:36:04.721Z,0.00
2019-03-13T04:37:04.690Z,0.00
2019-03-13T04:38:04.658Z,0.00
2019-03-13T04:39:04.628Z,0.00
2019-03-13T04:40:04.601Z,0.00
2019-03-13T04:41:04.570Z,0.00
2019-03-13T04:42:04.534Z,0.00
2019-03-13T04:43:04.505Z,0.00
2019-03-13T04:44:04.478Z,0.00
2019-03-13T04:45:04.442Z,0.00
2019-03-13T04:46:04.414Z,0.00
2019-03-13T04:47:04.383Z,0.00
2019-03-13T04:48:04.349Z,0.00
2019-03-13T04:49:04.334Z,0.00
2019-03-13T04:50:04.289Z,0.00
2019-03-13T04:51:04.258Z,0.00
2019-03-13T04:52:04.225Z,0.00
2019-03-13T04:53:04.194Z,0.00
2019-03-13T04:54:04.164Z,0.00
2019-03-13T04:55:04.134Z,0.00
2019-03-13T04:56:04.104Z,0.00
2019-03-13T04:57:04.070Z,0.00
2019-03-13T04:58:04.041Z,0.00
2019-03-13T04:59:04.010Z,0.00
2019-03-13T05:00:03.980Z,0.00
2019-03-13T05:01:03.946Z,0.00
2019-03-13T05:02:03.917Z,4.00
2019-03-13T05:03:03.885Z,4.00
2019-03-13T05:04:03.855Z,4.00
2019-03-13T05:05:03.822Z,0.00
2019-03-13T05:06:03.799Z,4.00
2019-03-13T05:07:03.763Z,8.00
2019-03-13T05:08:03.729Z,8.00
2019-03-13T05:09:03.698Z,8.00
2019-03-13T05:10:03.668Z,8.00
2019-03-13T05:11:03.637Z,8.00
2019-03-13T05:12:03.605Z,12.00
2019-03-13T05:13:03.767Z,16.00
2019-03-13T05:14:03.543Z,16.00
2019-03-13T05:15:03.514Z,24.00
2019-03-13T05:16:03.481Z,24.00
2019-03-13T05:17:03.450Z,28.00
2019-03-13T05:18:03.420Z,36.00
2019-03-13T05:19:03.390Z,40.00
2019-03-13T05:20:03.358Z,44.00
2019-03-13T05:21:03.329Z,48.00
2019-03-13T05:22:03.294Z,52.00
2019-03-13T05:23:03.267Z,60.00
2019-03-13T05:24:03.232Z,72.00
2019-03-13T05:25:03.200Z,84.00
2019-03-13T05:26:03.170Z,92.00
2019-03-13T05:27:03.140Z,104.00
2019-03-13T05:28:03.108Z,116.00
2019-03-13T05:29:03.077Z,132.00
2019-03-13T05:30:03.045Z,160.00
2019-03-13T05:31:03.015Z,180.00
2019-03-13T05:32:02.984Z,204.00
2019-03-13T05:33:02.953Z,224.00
2019-03-13T05:34:02.921Z,252.00
2019-03-13T05:35:02.891Z,268.00
2019-03-13T05:36:02.864Z,300.00
2019-03-13T05:37:02.827Z,332.00
2019-03-13T05:38:02.796Z,372.00
2019-03-13T05:39:02.767Z,416.00
2019-03-13T05:40:02.736Z,444.00
2019-03-13T05:41:02.705Z,452.00
2019-03-13T05:42:02.674Z,464.00
2019-03-13T05:43:02.642Z,440.00
2019-03-13T05:44:02.611Z,428.00
2019-03-13T05:45:02.579Z,416.00
2019-03-13T05:46:02.547Z,436.00
2019-03-13T05:47:02.516Z,504.00
2019-03-13T05:48:02.487Z,584.00
2019-03-13T05:49:02.455Z,604.00
2019-03-13T05:50:02.425Z,612.00
2019-03-13T05:51:02.394Z,644.00
2019-03-13T05:52:02.362Z,700.00
2019-03-13T05:53:02.331Z,732.00
2019-03-13T05:54:02.301Z,724.00
2019-03-13T05:55:02.270Z,756.00
2019-03-13T05:56:02.238Z,740.00
2019-03-13T05:57:02.208Z,736.00
2019-03-13T05:58:02.177Z,720.00
2019-03-13T05:59:02.148Z,760.00
2019-03-13T06:00:02.132Z,824.00
2019-03-13T06:01:02.089Z,840.00
2019-03-13T06:02:02.052Z,892.00
2019-03-13T06:03:02.023Z,892.00
2019-03-13T06:04:01.993Z,900.00
2019-03-13T06:05:01.960Z,900.00
2019-03-13T06:06:01.932Z,884.00
2019-03-13T06:07:01.897Z,836.00
2019-03-13T06:08:01.875Z,848.00
2019-03-13T06:09:01.919Z,888.00
2019-03-13T06:10:01.806Z,936.00
2019-03-13T06:11:01.777Z,1032.00
2019-03-13T06:12:01.744Z,1044.00
2019-03-13T06:13:01.712Z,1124.00
2019-03-13T06:14:01.683Z,1300.00
2019-03-13T06:15:03.692Z,1252.00
2019-03-13T06:16:01.620Z,1360.00
2019-03-13T06:17:01.592Z,1188.00
2019-03-13T06:18:01.559Z,1064.00
2019-03-13T06:19:01.527Z,1108.00
2019-03-13T06:20:01.498Z,1224.00
2019-03-13T06:21:01.465Z,1476.00
2019-03-13T06:22:01.436Z,1292.00
2019-03-13T06:23:01.404Z,1396.00
2019-03-13T06:24:01.373Z,1688.00
2019-03-13T06:25:01.343Z,1556.00
2019-03-13T06:26:01.311Z,1320.00
2019-03-13T06:27:01.282Z,1296.00
2019-03-13T06:28:01.251Z,1616.00
2019-03-13T06:29:01.219Z,1416.00
2019-03-13T06:30:01.186Z,1332.00
2019-03-13T06:31:01.156Z,1304.00
2019-03-13T06:32:01.126Z,1352.00
2019-03-13T06:33:01.095Z,1264.00
2019-03-13T06:34:01.063Z,1188.00
2019-03-13T06:35:01.032Z,1388.00
2019-03-13T06:36:01.003Z,1532.00
2019-03-13T06:37:00.971Z,1428.00
2019-03-13T06:38:00.941Z,1384.00
2019-03-13T06:39:00.910Z,1472.00
2019-03-13T06:40:00.879Z,1828.00
2019-03-13T06:41:00.847Z,2072.00
2019-03-13T06:42:00.816Z,2284.00
2019-03-13T06:43:00.786Z,2748.00
2019-03-13T06:44:00.806Z,2756.00
2019-03-13T06:45:00.724Z,3140.00
2019-03-13T06:46:00.694Z,3240.00
2019-03-13T06:47:00.666Z,2944.00
2019-03-13T06:48:00.633Z,3344.00
2019-03-13T06:49:00.600Z,4040.00
2019-03-13T06:50:00.571Z,4424.00
2019-03-13T06:51:00.540Z,4628.00
2019-03-13T06:52:00.510Z,4848.00
2019-03-13T06:53:00.477Z,5104.00
2019-03-13T06:54:00.457Z,5300.00
2019-03-13T06:55:00.417Z,5180.00
2019-03-13T06:56:00.386Z,4836.00
2019-03-13T06:57:00.355Z,4716.00
2019-03-13T06:58:00.327Z,4540.00
2019-03-13T06:59:00.299Z,4420.00
2019-03-13T07:00:00.396Z,4448.00
2019-03-13T07:01:00.236Z,4104.00
2019-03-13T07:02:00.203Z,4224.00
2019-03-13T07:03:00.177Z,4448.00
2019-03-13T07:04:00.143Z,4588.00
2019-03-13T07:05:00.383Z,4392.00
2019-03-13T07:06:00.081Z,3808.00
2019-03-13T07:07:00.051Z,3944.00
2019-03-13T07:08:00.019Z,4776.00
2019-03-13T07:08:59.988Z,4540.00
2019-03-13T07:09:59.959Z,4496.00
2019-03-13T07:10:59.927Z,4596.00
2019-03-13T07:11:59.898Z,4496.00
2019-03-13T07:12:59.866Z,4680.00
2019-03-13T07:13:59.836Z,5996.00
2019-03-13T07:14:59.806Z,5436.00
2019-03-13T07:15:59.781Z,4796.00
2019-03-13T07:16:59.747Z,4352.00
2019-03-13T07:17:59.714Z,5152.00
2019-03-13T07:18:59.686Z,4528.00
2019-03-13T07:19:59.653Z,4228.00
2019-03-13T07:20:59.624Z,4412.00
2019-03-13T07:21:59.593Z,4808.00
2019-03-13T07:22:59.562Z,5324.00
2019-03-13T07:23:59.554Z,6212.00
2019-03-13T07:24:59.559Z,6324.00
2019-03-13T07:25:59.470Z,6640.00
2019-03-13T07:26:59.440Z,6852.00
2019-03-13T07:27:59.409Z,6348.00
2019-03-13T07:29:11.485Z,6516.00
2019-03-13T07:29:59.347Z,6324.00
2019-03-13T07:30:59.318Z,6444.00
2019-03-13T07:31:59.289Z,5804.00
2019-03-13T07:32:59.258Z,5728.00
2019-03-13T07:33:59.227Z,5936.00
2019-03-13T07:34:59.197Z,6256.00
2019-03-13T07:35:59.167Z,6352.00
2019-03-13T07:36:59.139Z,6652.00
2019-03-13T07:37:59.106Z,6144.00
2019-03-13T07:38:59.076Z,6496.00
2019-03-13T07:39:59.046Z,7828.00
2019-03-13T07:40:59.015Z,7580.00
2019-03-13T07:41:58.987Z,8364.00
2019-03-13T07:42:58.955Z,8012.00
2019-03-13T07:43:58.927Z,8356.00
2019-03-13T07:44:58.900Z,8384.00
2019-03-13T07:45:58.864Z,9536.00
2019-03-13T07:46:58.835Z,11568.00
2019-03-13T07:47:58.806Z,11716.00
2019-03-13T07:48:58.775Z,11804.00
2019-03-13T07:49:58.746Z,12664.00
2019-03-13T07:50:58.714Z,11580.00
2019-03-13T07:51:58.687Z,11536.00
2019-03-13T07:52:58.656Z,12568.00
2019-03-13T07:53:58.625Z,14032.00
2019-03-13T07:54:58.594Z,14556.00
2019-03-13T07:55:58.567Z,13392.00
2019-03-13T07:56:58.535Z,13964.00
2019-03-13T07:57:58.506Z,13736.00
2019-03-13T07:58:58.480Z,14132.00
2019-03-13T07:59:58.450Z,12272.00
2019-03-13T08:00:58.418Z,11576.00
2019-03-13T08:01:58.389Z,13620.00
2019-03-13T08:02:58.360Z,13236.00
2019-03-13T08:03:58.329Z,11468.00
2019-03-13T08:04:58.301Z,11324.00
2019-03-13T08:05:58.271Z,13636.00
2019-03-13T08:06:58.240Z,16176.00
2019-03-13T08:07:58.212Z,15884.00
2019-03-13T08:08:58.182Z,14788.00
2019-03-13T08:09:58.152Z,14068.00
2019-03-13T08:10:58.125Z,10496.00
2019-03-13T08:11:58.094Z,10664.00
2019-03-13T08:12:58.064Z,13752.00
2019-03-13T08:13:58.038Z,13192.00
2019-03-13T08:14:58.007Z,11464.00
2019-03-13T08:15:57.983Z,9512.00
2019-03-13T08:16:57.948Z,11252.00
2019-03-13T08:17:57.920Z,13092.00
2019-03-13T08:18:57.890Z,12580.00
2019-03-13T08:19:57.861Z,12396.00
2019-03-13T08:20:57.832Z,13536.00
2019-03-13T08:21:57.803Z,14444.00
2019-03-13T08:22:57.775Z,16116.00
2019-03-13T08:23:57.744Z,17440.00
2019-03-13T08:24:57.713Z,18432.00
2019-03-13T08:25:57.685Z,18624.00
2019-03-13T08:26:57.657Z,19136.00
2019-03-13T08:27:57.629Z,21472.00
2019-03-13T08:28:57.601Z,21920.00
2019-03-13T08:29:57.569Z,22976.00
2019-03-13T08:30:57.541Z,25920.00
2019-03-13T08:31:57.514Z,25536.00
2019-03-13T08:32:57.491Z,25504.00
2019-03-13T08:33:57.455Z,37024.00
2019-03-13T08:34:57.427Z,32608.00
2019-03-13T08:35:57.404Z,26336.00
2019-03-13T08:36:57.371Z,24480.00
2019-03-13T08:37:57.344Z,24480.00
2019-03-13T08:38:57.320Z,32736.00
2019-03-13T08:39:57.289Z,26816.00
2019-03-13T08:40:57.263Z,32064.00
2019-03-13T08:41:57.237Z,26528.00
2019-03-13T08:42:57.226Z,23968.00
2019-03-13T08:43:57.180Z,26400.00
2019-03-13T08:44:57.151Z,24064.00
2019-03-13T08:45:57.125Z,24160.00
2019-03-13T08:46:57.098Z,24800.00
2019-03-13T08:47:57.070Z,42304.00
2019-03-13T08:48:57.044Z,27968.00
2019-03-13T08:49:57.018Z,22528.00
2019-03-13T08:50:56.990Z,36448.00
2019-03-13T08:51:56.964Z,28032.00
2019-03-13T08:52:56.940Z,30720.00
2019-03-13T08:53:56.911Z,32992.00
2019-03-13T08:54:56.886Z,32768.00
2019-03-13T08:55:56.860Z,33088.00
2019-03-13T08:56:56.832Z,27040.00
2019-03-13T08:57:56.807Z,25920.00
2019-03-13T08:58:56.784Z,37792.00
2019-03-13T08:59:56.758Z,40608.00
2019-03-13T09:00:56.737Z,28960.00
2019-03-13T09:01:56.710Z,26112.00
2019-03-13T09:02:56.680Z,25696.00
2019-03-13T09:03:56.655Z,24224.00
2019-03-13T09:04:56.629Z,25088.00
2019-03-13T09:05:56.609Z,25696.00
2019-03-13T09:06:56.578Z,32448.00
2019-03-13T09:07:56.554Z,29088.00
2019-03-13T09:08:56.527Z,27712.00
2019-03-13T09:09:56.501Z,30336.00
2019-03-13T09:10:56.476Z,44576.00
2019-03-13T09:11:56.478Z,31872.00
2019-03-13T09:13:01.240Z,31712.00
2019-03-13T09:13:56.397Z,21152.00
2019-03-13T09:14:56.373Z,19360.00
2019-03-13T09:15:56.347Z,20768.00
2019-03-13T09:16:56.321Z,23456.00
2019-03-13T09:17:56.294Z,27264.00
2019-03-13T09:18:56.270Z,29504.00
2019-03-13T09:19:56.243Z,31552.00
2019-03-13T09:20:56.214Z,34752.00
2019-03-13T09:21:56.190Z,30272.00
2019-03-13T09:22:56.165Z,31168.00
2019-03-13T09:23:56.138Z,34112.00
2019-03-13T09:24:56.111Z,37120.00
2019-03-13T09:25:56.085Z,31456.00
2019-03-13T09:26:56.060Z,27392.00
2019-03-13T09:27:56.035Z,31072.00
2019-03-13T09:28:56.008Z,30880.00
2019-03-13T09:29:55.983Z,23712.00
2019-03-13T09:30:55.961Z,22432.00
2019-03-13T09:31:55.930Z,23232.00
2019-03-13T09:32:55.902Z,26016.00
2019-03-13T09:33:55.878Z,30336.00
2019-03-13T09:34:55.853Z,33984.00
2019-03-13T09:35:55.825Z,31296.00
2019-03-13T09:36:55.800Z,17312.00
2019-03-13T09:37:55.774Z,14996.00
2019-03-13T09:38:55.747Z,14016.00
2019-03-13T09:39:55.720Z,15008.00
2019-03-13T09:40:55.694Z,17184.00
2019-03-13T09:41:55.666Z,17376.00
2019-03-13T09:42:55.641Z,17888.00
2019-03-13T09:43:55.615Z,19936.00
2019-03-13T09:44:55.586Z,22304.00
2019-03-13T09:45:55.562Z,23840.00
2019-03-13T09:46:55.534Z,16632.00
2019-03-13T09:47:55.507Z,12076.00
2019-03-13T09:48:55.478Z,12148.00
2019-03-13T09:49:55.454Z,15144.00
2019-03-13T09:50:55.427Z,14488.00
2019-03-13T09:51:55.398Z,14576.00
2019-03-13T09:52:55.369Z,15636.00
2019-03-13T09:53:55.343Z,19584.00
2019-03-13T09:54:55.314Z,22976.00
2019-03-13T09:55:55.288Z,19808.00
2019-03-13T09:56:55.260Z,17344.00
2019-03-13T09:57:55.232Z,17152.00
2019-03-13T09:58:55.205Z,19808.00
2019-03-13T09:59:55.179Z,20768.00
2019-03-13T10:00:55.154Z,18432.00
2019-03-13T10:01:55.123Z,14148.00
2019-03-13T10:02:55.097Z,9760.00
2019-03-13T10:03:55.069Z,8736.00
2019-03-13T10:04:55.041Z,9348.00
2019-03-13T10:05:55.013Z,8556.00
2019-03-13T10:06:54.992Z,8492.00
2019-03-13T10:07:54.959Z,8616.00
2019-03-13T10:08:54.932Z,9876.00
2019-03-13T10:09:54.914Z,11600.00
2019-03-13T10:10:54.878Z,10224.00
2019-03-13T10:11:54.851Z,10548.00
2019-03-13T10:12:54.821Z,12320.00
2019-03-13T10:13:54.796Z,15112.00
2019-03-13T10:14:54.766Z,20096.00
2019-03-13T10:15:54.739Z,22240.00
2019-03-13T10:16:54.708Z,21504.00
2019-03-13T10:17:54.709Z,24320.00
2019-03-13T10:18:54.657Z,27360.00
2019-03-13T10:19:54.626Z,26912.00
2019-03-13T10:20:54.600Z,25056.00
2019-03-13T10:21:54.570Z,21344.00
2019-03-13T10:22:54.540Z,20704.00
2019-03-13T10:23:54.514Z,19872.00
2019-03-13T10:24:54.486Z,16516.00
2019-03-13T10:25:54.460Z,13696.00
2019-03-13T10:26:54.431Z,12668.00
2019-03-13T10:27:54.405Z,13316.00
2019-03-13T10:28:54.377Z,11836.00
2019-03-13T10:29:54.349Z,11304.00
2019-03-13T10:30:54.321Z,12304.00
2019-03-13T10:31:54.294Z,14644.00
2019-03-13T10:32:54.266Z,19424.00
2019-03-13T10:33:54.239Z,21632.00
2019-03-13T10:34:54.210Z,22848.00
2019-03-13T10:35:54.185Z,23488.00
2019-03-13T10:36:54.155Z,21504.00
2019-03-13T10:37:54.128Z,19104.00
2019-03-13T10:38:54.101Z,16336.00
2019-03-13T10:39:54.073Z,16348.00
2019-03-13T10:40:54.045Z,17344.00
2019-03-13T10:41:54.020Z,17096.00
2019-03-13T10:42:53.992Z,15176.00
2019-03-13T10:43:53.962Z,13292.00
2019-03-13T10:44:53.940Z,12452.00
2019-03-13T10:45:53.910Z,14724.00
2019-03-13T10:46:53.882Z,14180.00
2019-03-13T10:47:53.852Z,10700.00
2019-03-13T10:48:53.828Z,10080.00
2019-03-13T10:49:53.797Z,12048.00
2019-03-13T10:50:53.771Z,11916.00
2019-03-13T10:51:53.741Z,12308.00
2019-03-13T10:52:53.714Z,13164.00
2019-03-13T10:53:53.688Z,11800.00
2019-03-13T10:54:53.659Z,12056.00
2019-03-13T10:55:55.143Z,13744.00
2019-03-13T10:56:53.602Z,13024.00
2019-03-13T10:57:53.577Z,11724.00
2019-03-13T10:58:53.548Z,9960.00
2019-03-13T10:59:53.520Z,10336.00
2019-03-13T11:00:53.492Z,10464.00
2019-03-13T11:01:53.464Z,9608.00
2019-03-13T11:02:53.438Z,9972.00
2019-03-13T11:03:53.410Z,10200.00
2019-03-13T11:04:53.410Z,9260.00
2019-03-13T11:05:53.353Z,8412.00
2019-03-13T11:06:55.152Z,8644.00
2019-03-13T11:07:53.301Z,8924.00
2019-03-13T11:08:53.269Z,9104.00
2019-03-13T11:09:53.249Z,10636.00
2019-03-13T11:10:53.221Z,12148.00
2019-03-13T11:11:53.199Z,13620.00
2019-03-13T11:12:53.158Z,13520.00
2019-03-13T11:13:53.132Z,13656.00
2019-03-13T11:14:53.103Z,12616.00
2019-03-13T11:15:53.075Z,12792.00
2019-03-13T11:16:53.045Z,15532.00
2019-03-13T11:17:53.019Z,14996.00
2019-03-13T11:18:52.991Z,12468.00
2019-03-13T11:19:52.963Z,12960.00
2019-03-13T11:20:52.934Z,15864.00
2019-03-13T11:21:52.906Z,16184.00
2019-03-13T11:22:52.881Z,15176.00
2019-03-13T11:23:52.850Z,17056.00
2019-03-13T11:24:52.822Z,20480.00
2019-03-13T11:25:52.795Z,20224.00
2019-03-13T11:26:52.767Z,18656.00
2019-03-13T11:27:52.740Z,23168.00
2019-03-13T11:28:52.713Z,26080.00
2019-03-13T11:29:52.766Z,23840.00
2019-03-13T11:30:52.656Z,21888.00
2019-03-13T11:31:52.629Z,20288.00
2019-03-13T11:32:52.603Z,19488.00
2019-03-13T11:33:52.575Z,19040.00
2019-03-13T11:34:52.551Z,17856.00
2019-03-13T11:35:52.520Z,16012.00
2019-03-13T11:36:52.489Z,12136.00
2019-03-13T11:37:52.465Z,10416.00
2019-03-13T11:38:52.437Z,9992.00
2019-03-13T11:39:52.409Z,11096.00
2019-03-13T11:40:52.384Z,13112.00
2019-03-13T11:41:52.371Z,14188.00
2019-03-13T11:42:52.328Z,12540.00
2019-03-13T11:43:52.300Z,13320.00
2019-03-13T11:44:52.272Z,17184.00
2019-03-13T11:45:52.245Z,18752.00
2019-03-13T11:46:52.217Z,25088.00
2019-03-13T11:47:52.193Z,41728.00
2019-03-13T11:48:52.162Z,46720.00
2019-03-13T11:49:52.135Z,42944.00
2019-03-13T11:50:52.108Z,36256.00
2019-03-13T11:51:52.083Z,32864.00
2019-03-13T11:52:52.054Z,34304.00
2019-03-13T11:53:52.028Z,27808.00
2019-03-13T11:54:52.002Z,23584.00
2019-03-13T11:55:51.973Z,22784.00
2019-03-13T11:56:51.946Z,21984.00
2019-03-13T11:57:51.919Z,20864.00
2019-03-13T11:58:51.893Z,21088.00
2019-03-13T11:59:51.866Z,22176.00
2019-03-13T12:00:51.842Z,17344.00
2019-03-13T12:01:51.813Z,12676.00
2019-03-13T12:02:51.793Z,12072.00
2019-03-13T12:03:51.759Z,12500.00
2019-03-13T12:04:51.734Z,11288.00
2019-03-13T12:05:51.706Z,12460.00
2019-03-13T12:06:51.680Z,11540.00
2019-03-13T12:07:51.654Z,12800.00
2019-03-13T12:08:51.624Z,16704.00
2019-03-13T12:09:51.597Z,16772.00
2019-03-13T12:10:51.571Z,16260.00
2019-03-13T12:11:51.544Z,15636.00
2019-03-13T12:12:51.516Z,15544.00
2019-03-13T12:13:51.490Z,16404.00
2019-03-13T12:14:51.468Z,20096.00
2019-03-13T12:15:51.435Z,16908.00
2019-03-13T12:16:51.408Z,10936.00
2019-03-13T12:17:51.380Z,12192.00
2019-03-13T12:18:51.353Z,15704.00
2019-03-13T12:19:51.327Z,15092.00
2019-03-13T12:20:51.298Z,11384.00
2019-03-13T12:21:51.271Z,11804.00
2019-03-13T12:22:51.245Z,15404.00
2019-03-13T12:23:51.218Z,19072.00
2019-03-13T12:24:51.190Z,21792.00
2019-03-13T12:25:51.163Z,19040.00
2019-03-13T12:26:51.137Z,15820.00
2019-03-13T12:27:51.108Z,15756.00